Hlavní strana
METAR-TAF:

METAR-TAF

Letiště :

Cut Bank, Montana, Spojené státy americké

zeměpisná šířka: 48-36-30N, zeměpisná délka: 112-22-34W, výška: 1175 m

Aktuální stav počasí

Zpráva byla vytvořena před 12 minutami, v 09:56 UTC
Západoseverozápadní vítr 10 kt
Teplota 2°C
Vlhkost vzduchu 69%
Tlak 1011 hPa
Viditelnost: 16.1 km
Oblačno až skoro zataženo ve výšce 5500 ft
Zataženo ve výšce 7000 ft

METAR: KCTB 210956Z AUTO 29010KT 10SM BKN055 OVC070 02/M03 A2986 RMK AO2 SLP121 T00221033

Čas: 04:08 (10:08 UTC)

Předpověď počasí

Zpráva byla vytvořena před 4 hodinami a 23 minutami, v 05:45 UTC
Předpověď platná od 21 v 06 UTC do 22 v 06 UTC
Západní vítr 9 kt
Viditelnost: 10 km
Oblačno až skoro zataženo ve výšce 12000 ft
Od 21 v 1900 UTC
Západní vítr 15 kt s nárazy do 25 kt
Viditelnost: 10 km
Polojasno ve výšce 8000 ft
Oblačno až skoro zataženo ve výšce 18000 ft

TAF: KCTB 210545Z 2106/2206 26009KT P6SM BKN120 FM211900 27015G25KT P6SM SCT080 BKN180

Stav a předpovědi počasí z více než 4 000 letišť (zprávy METAR a TAF).

Červené a žluté tečky na mapě představují dostupné meteorologické stanice.

Když kurzor umístíte na tečku, zobrazí se název stanice.

Pak kliknutím zobrazíte stav a předpověď počasí.

Chcete-li změnit mapu, kliknutím na zelené tlačítko se znaménkem +mapu přiblížíte, kliknutím na zelené tlačítko se znaménkem – mapu oddálíte a kliknutím na zelené šipky přejdete na sousední mapy.


METAR-TAF: